Accueil
METAR-TAF:

METAR-TAF

Aéroports :

Londres Biggin Hill, Angleterre

Aérodrome de Londres Biggin Hill

latitude: 51-19N, longitude: 000-02E, altitude: 183 m

Observation

Le bulletin a été fait il y a 3 heures et 52 minutes, à 20:20 UTC
Vent 4 kt de est/nord-est
Température 15°C
Humidité 94%
Pression 1016 hPa
Visibilité 10 km ou plus
Quelques nuages à une hauteur de 3000 ft

METAR: EGKB 282020Z 07004KT 9999 FEW030 15/14 Q1016

Heure: 01:12 (00:12 UTC)

Prévision

Le bulletin a été fait il y a 7 heures et 12 minutes, à 17:00 UTC
Prévision valable du 28 à 17 UTC au 28 à 19 UTC
Vent 5 kt de nord-est
Visibilité 10 km ou plus
Quelques nuages à une hauteur de 4500 ft
Temporairement
du 28 à 17 UTC au 28 à 19 UTC
Visibilité: 7000 m
averses de pluie

TAF: EGKB 281700Z 2817/2819 05005KT 9999 FEW045 TEMPO 2817/2819 7000 SHRA

Observations et prévisions météorologiques de plus de 4000 aéroports (messages METAR et TAF).

Les stations disponibles sont représentées par des disques jaunes et rouges sur la carte.

Passer la souris dessus pour voir le nom de la station.

Cliquer dessus pour voir les observations et prévisions météorologiques.

Pour changer de carte: cliquez sur les boutons verts avec une croix noire pour zoomer, sur le bouton vert avec un tiret pour effectuer un zoom arrière, ou sur les flèches vertes pour les cartes adjacentes.


METAR-TAF: